Time;durP1;ratioP1;P1;durP2;ratioP2;P2;SDS_P1;SDS_P2;PMS_P1;PMS_P2;Temp;Humidity;BMP_temperature;BMP_pressure;BME280_temperature;BME280_humidity;BME280_pressure;Samples;Min_cycle;Max_cycle;Signal;HPM_P1;HPM_P2
2023/07/01 05:47:30;;;;;;;4.80;4.40;;;;;;;19.11;68.11;98275.94;5174567;27;43223;-85
2023/07/01 05:49:59;;;;;;;5.20;4.70;;;;;;;19.22;67.88;98264.88;5157153;27;42883;-86
2023/07/01 06:12:22;;;;;;;5.27;4.53;;;;;;;20.93;61.69;98266.38;5180625;27;41375;-85
2023/07/01 06:14:50;;;;;;;5.23;3.83;;;;;;;21.34;61.50;98279.66;5176519;27;40567;-85
2023/07/01 06:17:17;;;;;;;4.97;3.60;;;;;;;21.60;60.65;98253.22;5176305;27;42811;-85
2023/07/01 06:19:45;;;;;;;4.97;3.90;;;;;;;21.94;58.90;98265.38;5176509;27;41847;-85
2023/07/01 06:22:12;;;;;;;4.63;3.90;;;;;;;22.24;57.60;98271.72;5195129;27;40975;-85
2023/07/01 06:28:15;;;;;;;4.77;3.53;;;;;;;22.95;53.73;98273.81;5113739;27;43521;-84
2023/07/01 06:30:48;;;;;;;4.27;3.87;;;;;;;23.16;52.24;98283.81;5158084;27;41482;-87
2023/07/01 06:38:21;;;;;;;3.40;3.00;;;;;;;23.28;48.86;98239.06;5194998;27;43258;-86
2023/07/01 06:40:56;;;;;;;5.53;2.70;;;;;;;23.82;48.18;98317.84;5158968;27;42160;-85
2023/07/01 06:43:26;;;;;;;3.53;2.90;;;;;;;23.53;47.20;98251.22;5176758;27;41477;-87
2023/07/01 06:46:00;;;;;;;3.20;3.00;;;;;;;23.89;46.90;98304.38;5158845;27;40170;-86
2023/07/01 06:55:43;;;;;;;3.20;2.57;;;;;;;24.35;45.59;98242.56;5095157;27;42740;-86
2023/07/01 06:58:41;;;;;;;3.07;2.80;;;;;;;24.90;44.55;98325.59;5095658;27;40922;-86
2023/07/01 07:01:09;;;;;;;3.30;2.97;;;;;;;24.88;44.43;98313.28;5098999;27;41311;-87
2023/07/01 07:03:39;;;;;;;3.20;2.90;;;;;;;24.97;44.21;98323.75;5099311;27;43305;-84
2023/07/01 07:06:07;;;;;;;5.47;2.70;;;;;;;24.79;44.22;98309.06;5171513;27;42302;-86
2023/07/01 07:08:36;;;;;;;2.97;2.67;;;;;;;24.89;43.48;98325.78;5179523;27;41880;-85
2023/07/01 07:11:04;;;;;;;3.80;2.53;;;;;;;24.79;42.36;98319.91;5145261;27;41788;-86
2023/07/01 07:13:32;;;;;;;3.83;2.23;;;;;;;24.97;43.00;98325.66;5198077;27;42718;-86
2023/07/01 07:16:02;;;;;;;3.33;2.83;;;;;;;25.04;43.19;98307.56;5161901;27;40964;-86
2023/07/01 07:18:30;;;;;;;3.70;2.20;;;;;;;25.19;43.98;98294.72;5179528;27;40729;-86
2023/07/01 07:20:57;;;;;;;3.30;2.83;;;;;;;25.42;43.25;98306.06;5179313;27;40769;-87
2023/07/01 07:23:52;;;;;;;2.97;2.33;;;;;;;25.32;43.33;98262.22;5177010;27;42872;-86
2023/07/01 07:26:25;;;;;;;5.37;2.80;;;;;;;25.52;43.41;98256.00;5162207;27;41152;-86
2023/07/01 07:28:55;;;;;;;2.63;2.40;;;;;;;25.89;42.74;98269.03;5162101;27;40037;-87
2023/07/01 07:31:24;;;;;;;4.03;2.40;;;;;;;25.92;42.01;98265.06;5179147;27;41727;-88
2023/07/01 07:33:52;;;;;;;3.37;2.53;;;;;;;26.12;41.39;98288.44;5161525;27;41804;-86
2023/07/01 07:36:20;;;;;;;3.43;2.87;;;;;;;26.35;40.99;98311.66;5161194;27;41457;-86
2023/07/01 07:38:48;;;;;;;3.03;2.20;;;;;;;26.44;40.60;98285.97;5179133;27;39899;-87
2023/07/01 07:41:36;;;;;;;3.70;2.20;;;;;;;26.74;40.17;98289.88;5161455;27;42060;-85
2023/07/01 07:44:05;;;;;;;2.87;2.00;;;;;;;26.81;40.50;98252.66;5161749;27;43293;-88
2023/07/01 07:46:35;;;;;;;2.47;1.77;;;;;;;27.40;39.57;98288.84;5161015;27;41348;-89
2023/07/01 07:49:06;;;;;;;2.97;2.13;;;;;;;28.06;38.75;98289.28;5161366;27;40364;-86
2023/07/01 07:51:37;;;;;;;3.00;2.23;;;;;;;28.70;36.19;98319.94;5161095;27;40638;-86
2023/07/01 07:54:05;;;;;;;2.77;2.10;;;;;;;29.03;35.03;98328.66;5161480;27;43061;-89
2023/07/01 07:56:33;;;;;;;3.67;2.13;;;;;;;29.94;33.80;98324.97;5161640;27;41420;-88
2023/07/01 07:59:04;;;;;;;3.37;2.00;;;;;;;31.19;31.67;98341.19;5161320;27;39985;-87
2023/07/01 08:01:41;;;;;;;;;;;;;;;;;;;;;
2023/07/01 08:04:18;;;;;;;3.67;1.83;;;;;;;33.57;28.48;98350.81;5161498;27;42985;-86
2023/07/01 08:06:55;;;;;;;2.03;1.93;;;;;;;34.76;26.52;98363.59;5161496;27;41354;-87
2023/07/01 08:09:23;;;;;;;3.07;1.67;;;;;;;35.39;25.37;98370.06;5178904;27;40858;-87
2023/07/01 08:11:50;;;;;;;3.43;1.83;;;;;;;35.81;24.64;98337.78;5177507;27;41631;-87
2023/07/01 08:14:20;;;;;;;3.10;1.80;;;;;;;36.52;24.31;98359.94;5178420;27;41781;-86
2023/07/01 08:16:48;;;;;;;1.85;1.33;;;;;;;37.40;22.99;98359.59;5160860;27;41590;-87
2023/07/01 08:19:20;;;;;;;1.77;1.60;;;;;;;37.89;22.08;98372.66;5161136;27;42235;-86
2023/07/01 08:21:48;;;;;;;2.08;1.52;;;;;;;37.97;21.05;98358.22;5178100;27;42300;-86
2023/07/01 08:24:15;;;;;;;2.25;1.80;;;;;;;37.94;21.81;98359.66;5161164;27;41839;-89
2023/07/01 08:26:44;;;;;;;5.97;1.50;;;;;;;38.07;21.18;98370.09;5160581;27;41978;-86
2023/07/01 08:29:24;;;;;;;3.47;1.60;;;;;;;37.94;21.72;98345.81;5178521;27;41589;-86
2023/07/01 08:31:52;;;;;;;2.97;1.40;;;;;;;37.84;21.58;98343.09;5192925;27;42290;-88
2023/07/01 08:34:21;;;;;;;1.98;1.55;;;;;;;37.44;20.95;98351.56;5160912;27;42546;-84
2023/07/01 08:36:51;;;;;;;3.58;1.60;;;;;;;36.92;21.57;98347.25;5177671;27;41933;-86
2023/07/01 08:39:21;;;;;;;3.72;1.92;;;;;;;36.21;22.55;98336.19;5178134;27;40728;-83
2023/07/01 08:41:55;;;;;;;2.35;1.50;;;;;;;35.53;23.07;98308.72;5160379;27;40727;-82
2023/07/01 08:44:23;;;;;;;3.53;1.77;;;;;;;35.09;23.75;98324.75;5178191;27;42020;-86
2023/07/01 08:46:56;;;;;;;2.73;1.80;;;;;;;34.91;23.93;98323.28;5160381;27;41772;-86
2023/07/01 08:49:25;;;;;;;2.57;1.60;;;;;;;34.51;24.50;98323.78;5160513;27;41253;-86
2023/07/01 08:52:00;;;;;;;4.33;1.83;;;;;;;33.93;24.47;98304.53;5160322;27;41784;-87
2023/07/01 08:54:28;;;;;;;3.80;1.70;;;;;;;33.66;24.98;98288.03;5160113;27;43236;-87
2023/07/01 08:56:57;;;;;;;4.23;1.90;;;;;;;33.22;25.29;98296.28;5160636;27;41311;-88
2023/07/01 08:59:25;;;;;;;3.90;1.73;;;;;;;33.01;26.33;98292.41;5160151;27;41287;-90
2023/07/01 09:01:53;;;;;;;3.37;2.13;;;;;;;32.88;26.69;98287.34;5178001;27;40738;-89
2023/07/01 09:04:21;;;;;;;2.87;2.20;;;;;;;32.66;26.34;98258.97;5160280;27;42731;-85
2023/07/01 09:06:59;;;;;;;2.10;1.50;;;;;;;32.59;26.09;98280.28;5177552;27;42355;-85
2023/07/01 09:09:27;;;;;;;2.30;1.40;;;;;;;32.11;26.33;98243.34;5159867;27;43021;-85
2023/07/01 09:11:55;;;;;;;4.60;1.70;;;;;;;32.25;27.21;98277.56;5159350;27;41813;-86
2023/07/01 09:14:24;;;;;;;4.17;1.70;;;;;;;32.50;26.15;98279.06;5159778;27;41732;-86
2023/07/01 09:16:52;;;;;;;2.37;1.67;;;;;;;32.48;25.93;98304.81;5177390;27;42039;-86
2023/07/01 09:19:22;;;;;;;1.60;1.50;;;;;;;32.20;26.22;98271.16;5177325;27;40357;-88
2023/07/01 09:22:08;;;;;;;2.07;1.87;;;;;;;31.77;26.20;98286.28;5192399;27;41765;-89
2023/07/01 09:24:39;;;;;;;2.27;1.90;;;;;;;31.89;26.62;98261.59;5159388;27;41992;-85
2023/07/01 09:27:08;;;;;;;3.00;1.53;;;;;;;32.31;25.85;98276.56;5159801;27;41805;-86
2023/07/01 09:29:40;;;;;;;3.30;1.60;;;;;;;33.02;24.98;98250.19;5159126;27;39776;-87
2023/07/01 09:32:09;;;;;;;3.60;1.60;;;;;;;34.20;23.71;98278.69;5159979;27;41897;-90
2023/07/01 09:34:55;;;;;;;2.37;1.70;;;;;;;34.87;22.49;98289.13;5159699;27;41841;-88
2023/07/01 09:37:26;;;;;;;2.73;1.60;;;;;;;34.65;22.61;98282.06;5160286;27;41290;-86
2023/07/01 09:39:54;;;;;;;1.90;1.80;;;;;;;34.30;23.37;98294.47;5159609;27;40144;-83
2023/07/01 09:42:21;;;;;;;2.20;1.77;;;;;;;34.38;22.74;98285.72;5159692;27;40801;-91
2023/07/01 09:45:07;;;;;;;3.90;1.80;;;;;;;34.89;22.19;98283.34;5159684;27;41880;-88
2023/07/01 09:47:36;;;;;;;4.00;1.97;;;;;;;35.36;21.79;98307.31;5176723;27;41312;-89
2023/07/01 09:50:03;;;;;;;2.57;1.70;;;;;;;36.13;21.81;98300.88;5177314;27;41849;-86
2023/07/01 09:52:33;;;;;;;3.75;1.80;;;;;;;37.50;19.92;98298.75;5159375;27;42029;-86
2023/07/01 09:55:03;;;;;;;2.83;1.90;;;;;;;38.05;20.11;98283.81;5159809;27;41798;-86
2023/07/01 09:57:32;;;;;;;3.78;2.15;;;;;;;37.92;19.54;98262.34;5159750;27;42598;-89
2023/07/01 10:00:03;;;;;;;3.45;1.70;;;;;;;38.30;19.65;98291.09;5159449;27;39988;-90
2023/07/01 10:02:40;;;;;;;2.37;2.00;;;;;;;38.43;19.78;98282.13;5177017;27;41009;-90
2023/07/01 10:05:08;;;;;;;3.03;1.97;;;;;;;37.93;19.26;98286.09;5159539;27;41749;-87
2023/07/01 10:07:52;;;;;;;2.40;2.20;;;;;;;36.91;20.17;98268.31;5158660;27;41192;-90
2023/07/01 10:10:21;;;;;;;2.63;1.90;;;;;;;35.92;21.21;98259.53;5159019;27;41100;-88
2023/07/01 10:12:51;;;;;;;4.40;2.00;;;;;;;35.23;21.38;98235.09;5158160;27;41539;-87
2023/07/01 10:15:25;;;;;;;2.97;2.00;;;;;;;34.67;21.99;98249.63;5158622;27;42631;-88
2023/07/01 10:18:00;;;;;;;5.07;2.17;;;;;;;34.66;22.37;98269.97;5159104;27;41305;-88
2023/07/01 10:20:33;;;;;;;6.83;2.47;;;;;;;34.58;22.69;98252.88;5159877;27;39612;-85
2023/07/01 10:23:06;;;;;;;4.27;2.07;;;;;;;34.30;22.38;98184.50;5158990;27;41105;-91
2023/07/01 10:25:41;;;;;;;4.63;2.07;;;;;;;34.20;22.40;98190.72;5160080;27;42486;-85
2023/07/01 10:28:10;;;;;;;5.93;2.00;;;;;;;34.23;22.59;98258.09;5159156;27;42585;-85
2023/07/01 10:31:13;;;;;;;4.73;2.40;;;;;;;34.17;23.27;98250.91;5159002;27;40127;-88
2023/07/01 10:33:58;;;;;;;3.30;2.10;;;;;;;34.41;22.97;98241.22;5176858;27;41122;-87
2023/07/01 10:36:26;;;;;;;3.33;2.20;;;;;;;34.57;23.06;98245.72;5162430;27;43175;-87
2023/07/01 10:39:28;;;;;;;2.60;2.40;;;;;;;34.57;22.88;98198.97;5180555;27;42359;-90
2023/07/01 10:42:00;;;;;;;2.73;2.20;;;;;;;34.51;23.10;98227.53;5159720;27;41075;-89
2023/07/01 10:44:28;;;;;;;3.53;2.10;;;;;;;34.05;23.63;98233.75;5162676;27;40810;-89
2023/07/01 10:47:18;;;;;;;3.90;2.10;;;;;;;34.00;24.20;98215.31;5162580;27;41851;-87
2023/07/01 10:50:08;;;;;;;2.60;2.03;;;;;;;34.05;24.02;98233.75;5162734;27;41709;-86
2023/07/01 10:53:01;;;;;;;2.53;1.83;;;;;;;34.34;23.58;98229.63;5163231;27;39966;-89
2023/07/01 10:55:36;;;;;;;4.93;2.23;;;;;;;34.22;23.95;98206.97;5176009;27;41887;-92
2023/07/01 10:58:23;;;;;;;2.70;1.90;;;;;;;34.16;24.30;98219.00;5162664;27;42732;-88
2023/07/01 11:00:52;;;;;;;2.70;2.03;;;;;;;33.81;24.62;98203.88;5162810;27;41420;-88
2023/07/01 11:03:58;;;;;;;2.90;2.20;;;;;;;33.57;24.66;98209.94;5161997;27;39836;-87
2023/07/01 11:06:30;;;;;;;4.00;2.20;;;;;;;33.19;25.45;98187.84;5162249;27;40893;-90
2023/07/01 11:08:58;;;;;;;2.33;1.80;;;;;;;32.97;25.29;98191.69;5162280;27;43375;-89
2023/07/01 11:11:28;;;;;;;3.70;2.27;;;;;;;32.85;25.62;98185.50;5162241;27;41726;-90
2023/07/01 11:14:04;;;;;;;4.20;2.23;;;;;;;32.87;25.55;98186.91;5161875;27;40017;-88
2023/07/01 11:16:33;;;;;;;4.10;1.97;;;;;;;33.22;25.66;98196.66;5161228;27;42367;-88
2023/07/01 11:19:02;;;;;;;3.83;1.90;;;;;;;33.12;25.65;98162.53;5179667;27;42945;-87
2023/07/01 11:21:32;;;;;;;2.40;2.00;;;;;;;33.23;25.28;98179.09;5144504;27;41571;-88
2023/07/01 11:24:03;;;;;;;4.40;2.27;;;;;;;33.06;25.57;98173.69;5161809;27;39994;-87
2023/07/01 11:26:32;;;;;;;7.07;2.20;;;;;;;32.85;25.80;98172.63;5161806;27;40880;-88
2023/07/01 11:29:12;;;;;;;4.90;1.70;;;;;;;32.64;26.34;98196.16;5161605;27;43413;-87
2023/07/01 11:31:41;;;;;;;4.70;2.40;;;;;;;32.34;26.90;98171.91;5162007;27;41637;-90
2023/07/01 11:34:10;;;;;;;3.33;2.40;;;;;;;32.11;27.20;98161.13;5161853;27;41018;-85
2023/07/01 11:36:39;;;;;;;3.20;2.33;;;;;;;31.94;27.10;98183.06;5144108;27;40567;-90
2023/07/01 11:39:12;;;;;;;2.47;2.00;;;;;;;31.62;27.53;98158.13;5162011;27;42798;-90
2023/07/01 11:41:49;;;;;;;2.70;1.83;;;;;;;31.46;27.61;98169.88;5179084;27;42294;-89
2023/07/01 11:44:20;;;;;;;2.17;1.97;;;;;;;31.16;28.21;98139.25;5144166;27;40608;-89
2023/07/01 11:46:52;;;;;;;3.67;2.73;;;;;;;31.20;28.52;98171.31;5160249;27;40661;-89
2023/07/01 11:49:24;;;;;;;4.70;2.17;;;;;;;31.00;28.62;98152.59;5161602;27;42004;-90
2023/07/01 11:51:54;;;;;;;2.43;2.10;;;;;;;31.02;28.91;98166.88;5161450;27;43666;-89
2023/07/01 11:54:26;;;;;;;6.70;2.43;;;;;;;30.41;29.00;98090.13;5178999;27;41410;-90
2023/07/01 11:57:10;;;;;;;3.90;1.73;;;;;;;30.76;29.13;98148.28;5161808;27;40958;-92
2023/07/01 11:59:47;;;;;;;3.17;2.00;;;;;;;30.67;29.63;98166.13;5179092;27;41497;-92
2023/07/01 12:02:16;;;;;;;3.97;2.20;;;;;;;30.13;29.52;98089.00;5161885;27;42526;-91
2023/07/01 12:04:45;;;;;;;4.77;2.57;;;;;;;30.39;30.15;98157.84;5161510;27;40982;-89
2023/07/01 12:07:17;;;;;;;6.73;2.50;;;;;;;30.28;29.85;98162.25;5161315;27;41414;-91
2023/07/01 12:09:46;;;;;;;5.23;2.90;;;;;;;30.18;30.18;98157.38;5178619;27;43242;-89
2023/07/01 12:12:17;;;;;;;4.03;2.30;;;;;;;29.55;30.73;98081.59;5161220;27;42441;-89
2023/07/01 12:15:11;;;;;;;3.23;2.60;;;;;;;29.87;30.57;98161.28;5161619;27;41306;-88
2023/07/01 12:20:22;;;;;;;2.80;2.60;;;;;;;29.02;31.65;98124.41;5160470;27;41857;-89
2023/07/01 12:22:55;;;;;;;4.10;2.37;;;;;;;28.85;32.00;98135.94;5160866;27;41394;-91
2023/07/01 12:25:27;;;;;;;4.17;2.30;;;;;;;28.65;32.00;98139.97;5160964;27;40083;-89
2023/07/01 12:27:59;;;;;;;4.60;2.73;;;;;;;28.56;32.20;98136.72;5178268;27;41618;-91
2023/07/01 12:30:29;;;;;;;3.67;2.60;;;;;;;28.39;32.62;98146.56;5161018;27;42971;-88
2023/07/01 12:33:00;;;;;;;5.67;2.50;;;;;;;28.41;33.09;98133.53;5160565;27;41344;-92
2023/07/01 12:35:28;;;;;;;4.33;2.43;;;;;;;28.59;33.04;98136.25;5160884;27;40975;-89
2023/07/01 12:37:58;;;;;;;3.70;2.33;;;;;;;28.65;32.79;98110.81;5160967;27;40781;-90
2023/07/01 12:40:27;;;;;;;5.27;2.67;;;;;;;28.98;32.79;98128.63;5161024;27;41874;-89
2023/07/01 12:42:55;;;;;;;3.30;2.70;;;;;;;29.01;32.47;98133.63;5178516;27;42459;-88
2023/07/01 12:45:22;;;;;;;3.13;2.80;;;;;;;29.05;33.01;98130.22;5161989;27;41328;-88
2023/07/01 12:47:52;;;;;;;3.97;2.67;;;;;;;28.99;32.61;98130.31;5162847;27;41005;-87
2023/07/01 12:50:20;;;;;;;6.20;3.10;;;;;;;28.92;32.98;98125.78;5164538;27;41413;-89
2023/07/01 12:52:53;;;;;;;3.33;2.90;;;;;;;28.77;32.95;98105.44;5163858;27;42636;-89
2023/07/01 12:55:22;;;;;;;4.57;2.30;;;;;;;28.81;33.24;98121.09;5164174;27;40559;-88
2023/07/01 12:57:51;;;;;;;2.50;1.90;;;;;;;28.90;33.34;98130.63;5161402;27;40979;-89
2023/07/01 13:00:19;;;;;;;4.73;2.50;;;;;;;28.87;33.14;98101.09;5160725;27;42891;-89
2023/07/01 13:02:47;;;;;;;3.17;2.60;;;;;;;29.16;33.11;98125.88;5160151;27;42059;-90
2023/07/01 13:05:19;;;;;;;3.43;2.03;;;;;;;29.08;33.17;98091.56;5160105;27;41005;-87
2023/07/01 13:07:48;;;;;;;5.07;2.63;;;;;;;29.33;33.03;98115.94;5160682;27;40978;-86
2023/07/01 13:10:19;;;;;;;2.77;1.87;;;;;;;29.55;32.80;98127.19;5160175;27;42333;-86
2023/07/01 13:12:47;;;;;;;5.87;2.40;;;;;;;29.74;32.61;98095.16;5159942;27;42327;-89
2023/07/01 13:15:28;;;;;;;2.70;1.73;;;;;;;30.01;32.55;98118.22;5160288;27;40138;-91
2023/07/01 13:17:56;;;;;;;4.87;2.30;;;;;;;29.77;32.11;98102.88;5159550;27;40988;-91
2023/07/01 13:20:27;;;;;;;2.90;1.93;;;;;;;29.50;32.90;98106.06;5160006;27;41631;-89
2023/07/01 13:22:56;;;;;;;4.27;2.30;;;;;;;29.13;33.07;98075.34;5160410;27;41269;-91
2023/07/01 13:25:25;;;;;;;2.63;2.07;;;;;;;29.21;33.64;98106.91;5160331;27;39936;-89
2023/07/01 13:27:54;;;;;;;3.93;2.13;;;;;;;29.23;33.53;98121.97;5159939;27;42122;-90
2023/07/01 13:30:32;;;;;;;3.73;2.23;;;;;;;29.24;33.57;98104.53;5159969;27;41631;-91
2023/07/01 13:33:02;;;;;;;3.83;2.30;;;;;;;29.04;33.43;98067.75;5175021;27;42490;-86
2023/07/01 13:35:31;;;;;;;3.33;2.13;;;;;;;29.21;33.48;98096.00;5159854;27;40299;-91
2023/07/01 13:38:10;;;;;;;3.23;2.00;;;;;;;29.31;33.92;98112.63;5160328;27;41078;-91
2023/07/01 13:40:41;;;;;;;4.10;2.07;;;;;;;29.46;33.72;98109.47;5177186;27;41419;-91
2023/07/01 13:43:17;;;;;;;1.97;1.80;;;;;;;29.55;33.87;98108.88;5160259;27;42354;-91
2023/07/01 13:45:46;;;;;;;2.70;1.80;;;;;;;29.35;33.64;98064.72;5160178;27;41513;-90
2023/07/01 13:48:35;;;;;;;2.30;1.90;;;;;;;29.53;34.17;98061.94;5160153;27;40714;-91
2023/07/01 13:51:04;;;;;;;3.67;1.83;;;;;;;30.00;34.34;98100.16;5143121;27;42893;-88
2023/07/01 13:53:32;;;;;;;2.97;2.13;;;;;;;29.89;34.30;98088.16;5160166;27;41149;-91
2023/07/01 13:56:01;;;;;;;3.57;1.90;;;;;;;29.64;34.38;98047.47;5177498;27;40935;-88
2023/07/01 13:58:32;;;;;;;2.43;1.97;;;;;;;30.01;34.27;98077.25;5176213;27;41721;-87
2023/07/01 14:00:59;;;;;;;2.57;1.67;;;;;;;30.20;34.27;98084.22;5159937;27;42042;-86
2023/07/01 14:03:45;;;;;;;2.40;1.97;;;;;;;30.52;33.67;98092.00;5176488;27;42284;-89
2023/07/01 14:06:15;;;;;;;2.23;2.03;;;;;;;30.63;33.27;98074.75;5159611;27;40998;-90
2023/07/01 14:08:43;;;;;;;2.30;1.87;;;;;;;30.96;32.64;98094.00;5176275;27;42488;-88
2023/07/01 14:11:18;;;;;;;3.40;1.63;;;;;;;31.26;32.40;98092.91;5177556;27;42671;-90
2023/07/01 14:13:49;;;;;;;2.10;1.80;;;;;;;31.56;31.85;98085.22;5159267;27;41606;-85
2023/07/01 14:16:19;;;;;;;2.47;1.80;;;;;;;31.73;31.97;98094.28;5159663;27;39809;-86
2023/07/01 14:18:47;;;;;;;1.90;1.70;;;;;;;31.45;32.28;98091.59;5159270;27;40859;-90
2023/07/01 14:21:18;;;;;;;1.80;1.70;;;;;;;31.36;32.30;98093.09;5159408;27;43581;-91
2023/07/01 14:23:54;;;;;;;1.70;1.60;;;;;;;31.26;32.53;98065.56;5158758;27;41695;-90
2023/07/01 14:26:28;;;;;;;1.73;1.63;;;;;;;31.30;32.88;98099.53;5159601;27;39949;-91
2023/07/01 14:29:00;;;;;;;1.97;1.77;;;;;;;30.83;32.64;98083.34;5176086;27;40882;-89
2023/07/01 14:31:32;;;;;;;2.07;1.50;;;;;;;30.43;33.28;98093.44;5159850;27;42979;-90
2023/07/01 14:34:01;;;;;;;1.93;1.60;;;;;;;29.97;34.01;98084.25;5158591;27;42620;-91
2023/07/01 14:36:33;;;;;;;2.07;1.50;;;;;;;29.67;34.56;98083.53;5159558;27;41351;-91
2023/07/01 14:39:02;;;;;;;4.00;2.90;;;;;;;29.35;34.87;98075.63;5159001;27;40710;-90
2023/07/01 14:41:31;;;;;;;2.97;1.80;;;;;;;29.02;35.39;98069.88;5159234;27;42188;-91
2023/07/01 14:44:01;;;;;;;3.03;1.90;;;;;;;28.52;35.72;98027.38;5158757;27;42824;-90
2023/07/01 14:46:29;;;;;;;3.67;1.70;;;;;;;28.60;36.22;98067.91;5159062;27;39915;-94
2023/07/01 14:48:57;;;;;;;3.90;2.00;;;;;;;28.46;36.40;98065.56;5158088;27;40867;-91
2023/07/01 14:51:26;;;;;;;2.10;1.80;;;;;;;28.43;36.58;98063.34;5158946;27;41990;-91
2023/07/01 14:53:56;;;;;;;3.73;1.90;;;;;;;28.07;36.67;98001.53;5158456;27;42618;-91
2023/07/01 14:56:25;;;;;;;4.50;3.53;;;;;;;28.33;36.96;98033.06;5159152;27;41045;-90
2023/07/01 14:58:53;;;;;;;1.90;1.70;;;;;;;28.19;36.95;98025.06;5158317;27;40701;-88
2023/07/01 15:01:22;;;;;;;2.43;2.00;;;;;;;28.11;37.25;98047.13;5158458;27;42740;-93
2023/07/01 15:03:51;;;;;;;2.07;1.90;;;;;;;27.98;37.64;98050.00;5158241;27;41061;-89
2023/07/01 15:06:19;;;;;;;2.20;2.00;;;;;;;27.84;37.79;98034.88;5158843;27;39985;-90
2023/07/01 15:08:47;;;;;;;2.67;2.27;;;;;;;27.88;37.97;98046.97;5158631;27;41065;-90
2023/07/01 15:11:18;;;;;;;4.40;2.30;;;;;;;27.79;38.08;98048.34;5158584;27;43572;-90
2023/07/01 15:13:46;;;;;;;3.53;3.03;;;;;;;27.62;38.36;98017.31;5158167;27;41663;-91
2023/07/01 15:16:16;;;;;;;3.83;2.40;;;;;;;27.64;38.35;98028.81;5159130;27;40339;-88
2023/07/01 15:18:44;;;;;;;3.77;2.47;;;;;;;27.60;38.08;98024.88;5157943;27;41013;-90
2023/07/01 15:21:12;;;;;;;2.40;2.20;;;;;;;27.68;38.24;98030.03;5144337;27;42762;-90
2023/07/01 15:23:40;;;;;;;3.27;1.90;;;;;;;27.65;38.21;98030.47;5161823;27;42141;-87
2023/07/01 15:26:07;;;;;;;4.33;2.30;;;;;;;27.53;38.60;98016.75;5161881;27;41153;-86
2023/07/01 15:28:36;;;;;;;4.00;2.07;;;;;;;27.57;38.23;98019.91;5144353;27;40947;-84
2023/07/01 15:31:05;;;;;;;5.13;2.43;;;;;;;27.62;38.48;98020.88;5161891;27;41715;-84
2023/07/01 15:33:33;;;;;;;2.30;1.97;;;;;;;27.62;38.47;98042.63;5161650;27;41607;-89
2023/07/01 15:36:01;;;;;;;3.33;2.10;;;;;;;27.39;38.93;98013.34;5161719;27;41266;-87
2023/07/01 15:38:28;;;;;;;3.13;1.97;;;;;;;27.24;39.30;98021.00;5161164;27;40693;-88
2023/07/01 15:40:56;;;;;;;3.50;2.30;;;;;;;27.08;39.29;98035.13;5161651;27;42063;-88
2023/07/01 15:43:24;;;;;;;1.83;1.57;;;;;;;26.64;39.55;97990.69;5161575;27;42825;-87
2023/07/01 15:45:54;;;;;;;4.97;1.97;;;;;;;26.61;40.05;98002.00;5161505;27;39641;-85
2023/07/01 15:48:25;;;;;;;3.50;2.10;;;;;;;26.46;40.65;97994.13;5161378;27;40708;-86
2023/07/01 15:50:53;;;;;;;2.10;1.90;;;;;;;26.51;40.72;98007.06;5161246;27;42044;-88
2023/07/01 15:53:21;;;;;;;3.63;2.00;;;;;;;26.51;40.83;98011.66;5161130;27;41367;-84
2023/07/01 15:55:49;;;;;;;2.33;2.10;;;;;;;26.48;40.79;98002.91;5161866;27;40890;-86
2023/07/01 15:58:16;;;;;;;3.33;1.90;;;;;;;26.40;41.07;97995.03;5178187;27;42204;-86
2023/07/01 16:00:44;;;;;;;2.40;1.70;;;;;;;26.44;41.01;97995.44;5161201;27;43306;-88
2023/07/01 16:03:13;;;;;;;3.13;1.73;;;;;;;26.30;41.22;97993.84;5178798;27;42541;-87
2023/07/01 16:05:41;;;;;;;2.37;2.00;;;;;;;26.20;41.29;97990.72;5161290;27;39895;-88
2023/07/01 16:08:12;;;;;;;2.43;2.13;;;;;;;26.10;41.26;97988.44;5161150;27;41922;-86
2023/07/01 16:10:45;;;;;;;2.57;2.10;;;;;;;26.12;41.25;97992.63;5161646;27;42237;-87
2023/07/01 16:13:30;;;;;;;2.87;1.80;;;;;;;26.08;41.30;97979.72;5160499;27;41768;-85
2023/07/01 16:16:00;;;;;;;3.27;1.77;;;;;;;25.99;41.46;97987.25;5161114;27;40022;-86
2023/07/01 16:18:49;;;;;;;3.27;1.77;;;;;;;26.06;41.68;98008.94;5161180;27;40532;-87
2023/07/01 16:21:21;;;;;;;3.30;2.00;;;;;;;26.03;41.89;98007.50;5161835;27;41447;-84
2023/07/01 16:23:50;;;;;;;3.30;2.03;;;;;;;25.93;41.77;98004.41;5160596;27;41796;-87
2023/07/01 16:26:30;;;;;;;3.73;2.20;;;;;;;25.90;42.34;98002.13;5178530;27;39943;-89
2023/07/01 16:28:59;;;;;;;3.40;2.30;;;;;;;25.82;42.22;97998.81;5160263;27;41357;-87
2023/07/01 16:31:29;;;;;;;3.20;1.90;;;;;;;25.73;42.29;97995.47;5177649;27;43410;-86
2023/07/01 16:33:59;;;;;;;3.40;2.10;;;;;;;25.78;42.19;97995.69;5160139;27;43313;-88
2023/07/01 16:36:31;;;;;;;3.83;2.27;;;;;;;25.78;42.17;97995.69;5160782;27;40361;-87
2023/07/01 16:39:01;;;;;;;3.03;2.00;;;;;;;25.85;42.13;97988.34;5196185;27;41706;-88
2023/07/01 16:41:32;;;;;;;4.03;2.03;;;;;;;25.87;41.98;97993.56;5160507;27;42731;-82
2023/07/01 16:44:00;;;;;;;5.50;1.90;;;;;;;25.79;42.21;97991.09;5160490;27;41398;-84
2023/07/01 16:46:31;;;;;;;2.57;2.30;;;;;;;25.63;42.57;97976.13;5196607;27;41077;-84
2023/07/01 16:49:01;;;;;;;4.07;3.17;;;;;;;25.61;42.71;97983.63;5160450;27;41221;-85
2023/07/01 16:51:30;;;;;;;5.67;3.70;;;;;;;25.68;42.97;98001.56;5160136;27;41929;-86
2023/07/01 16:54:24;;;;;;;5.40;3.43;;;;;;;25.67;42.97;97996.34;5177795;27;42173;-85
2023/07/01 16:56:55;;;;;;;8.33;4.50;;;;;;;25.59;42.77;98002.78;5160444;27;39865;-85
2023/07/01 16:59:41;;;;;;;3.13;2.83;;;;;;;25.47;43.16;97990.13;5177543;27;41902;-85
2023/07/01 17:03:08;;;;;;;5.43;2.80;;;;;;;25.28;43.77;97976.38;5160221;27;43043;-83
2023/07/01 17:05:38;;;;;;;3.20;2.20;;;;;;;25.11;44.39;97987.84;5160288;27;40986;-81
2023/07/01 17:08:06;;;;;;;2.13;1.90;;;;;;;24.44;46.26;97968.00;5177541;27;39842;-84
2023/07/01 17:10:42;;;;;;;1.90;1.80;;;;;;;24.15;47.31;97976.41;5159832;27;41040;-84
2023/07/01 17:13:30;;;;;;;2.93;2.23;;;;;;;23.99;47.54;97959.50;5194851;27;42695;-85
2023/07/01 17:16:04;;;;;;;3.50;1.87;;;;;;;23.84;46.44;97928.25;5160561;27;42351;-85
2023/07/01 17:18:31;;;;;;;2.03;1.83;;;;;;;24.05;46.84;97957.03;5159804;27;40180;-85
2023/07/01 17:21:01;;;;;;;1.93;1.83;;;;;;;24.15;46.91;97981.81;5160023;27;40675;-84
2023/07/01 17:23:28;;;;;;;2.13;1.63;;;;;;;24.06;47.01;97972.22;5177438;27;42584;-84
2023/07/01 17:25:58;;;;;;;2.63;2.07;;;;;;;23.94;47.91;97983.63;5159552;27;41618;-87
2023/07/01 17:28:26;;;;;;;2.40;1.83;;;;;;;23.89;48.52;97980.69;5159256;27;40983;-85
2023/07/01 17:30:54;;;;;;;1.97;1.77;;;;;;;23.91;49.03;97992.13;5177448;27;42130;-80
2023/07/01 17:33:22;;;;;;;5.43;2.17;;;;;;;23.77;50.08;97982.28;5158870;27;41641;-80
2023/07/01 17:35:50;;;;;;;5.17;3.97;;;;;;;23.32;51.39;97964.78;5159397;27;41379;-83
2023/07/01 17:38:19;;;;;;;8.80;6.23;;;;;;;22.88;54.33;97930.78;5142362;27;39966;-83
2023/07/01 17:40:47;;;;;;;15.13;10.97;;;;;;;22.66;56.59;97939.09;5159489;27;40990;-82
2023/07/01 17:43:14;;;;;;;9.77;6.20;;;;;;;22.60;58.61;97980.38;5175799;27;43686;-81
2023/07/01 17:45:42;;;;;;;7.50;5.30;;;;;;;22.19;60.79;97972.88;5176745;27;41393;-83
2023/07/01 17:48:33;;;;;;;;;;;;;;;;;;;;;
2023/07/01 17:51:01;;;;;;;4.20;3.27;;;;;;;21.57;64.00;97962.56;5122757;27;40851;-85
2023/07/01 17:57:49;;;;;;;2.80;2.10;;;;;;;20.90;66.71;97943.72;5129918;27;41425;-84
2023/07/01 18:01:31;;;;;;;3.20;2.10;;;;;;;20.66;67.57;97941.28;5050282;27;40560;-84
2023/07/01 18:04:11;;;;;;;2.57;2.20;;;;;;;20.69;69.06;97974.03;5111165;27;40876;-86
2023/07/01 18:06:41;;;;;;;2.77;1.93;;;;;;;20.38;69.31;97938.34;5118015;27;42227;-85
2023/07/01 18:09:09;;;;;;;2.13;1.90;;;;;;;20.68;69.16;98006.50;5117995;27;42695;-87
2023/07/01 18:11:37;;;;;;;3.40;2.00;;;;;;;20.65;69.87;97996.94;5134821;27;40054;-85
2023/07/01 18:14:07;;;;;;;3.10;1.57;;;;;;;20.28;71.33;97943.91;5134467;27;41784;-83
2023/07/01 18:16:37;;;;;;;2.10;1.67;;;;;;;20.69;71.08;98010.88;5134668;27;42992;-84
2023/07/01 18:22:14;;;;;;;3.97;2.03;;;;;;;20.43;71.32;97979.78;5117970;27;40230;-87
2023/07/01 18:24:43;;;;;;;1.93;1.63;;;;;;;20.57;70.79;97991.63;5117513;27;40696;-86
2023/07/01 18:27:10;;;;;;;1.83;1.57;;;;;;;20.69;70.14;98000.09;5134801;27;42882;-86
2023/07/01 18:29:42;;;;;;;3.23;2.03;;;;;;;20.76;70.40;97995.69;5151608;27;43186;-86
2023/07/01 18:32:15;;;;;;;1.73;1.50;;;;;;;20.86;70.27;97996.28;5117576;27;40990;-85